Time;durP1;ratioP1;P1;durP2;ratioP2;P2;SDS_P1;SDS_P2;PMS_P1;PMS_P2;Temp;Humidity;BMP_temperature;BMP_pressure;BME280_temperature;BME280_humidity;BME280_pressure;Samples;Min_cycle;Max_cycle;Signal;HPM_P1;HPM_P2
2023/01/27 00:01:15;;;;;;;516.60;489.87;;;3.40;99.90;;;;;;5003731;28;20458;-81
2023/01/27 00:03:42;;;;;;;515.53;489.87;;;3.40;99.90;;;;;;5004302;28;20440;-82
2023/01/27 00:06:11;;;;;;;530.70;503.40;;;3.40;99.90;;;;;;5003389;28;20469;-81
2023/01/27 00:08:37;;;;;;;552.43;523.00;;;3.40;99.90;;;;;;5003423;28;20474;-81
2023/01/27 00:13:49;;;;;;;581.50;549.10;;;3.40;99.90;;;;;;5003559;28;20484;-82
2023/01/27 00:16:15;;;;;;;574.27;542.20;;;3.40;99.90;;;;;;5002961;28;20461;-81
2023/01/27 00:18:42;;;;;;;578.37;546.47;;;3.50;99.90;;;;;;5003308;28;20485;-81
2023/01/27 00:26:39;;;;;;;556.20;528.10;;;3.40;99.90;;;;;;5003170;28;20510;-81
2023/01/27 00:29:06;;;;;;;529.73;504.40;;;3.40;99.90;;;;;;5003242;28;20490;-81
2023/01/27 00:34:17;;;;;;;447.27;427.23;;;3.50;99.90;;;;;;5002514;28;20525;-81
2023/01/27 00:36:45;;;;;;;459.53;438.93;;;3.40;99.90;;;;;;5002844;28;20855;-81
2023/01/27 00:39:12;;;;;;;421.53;402.73;;;3.50;99.90;;;;;;5002408;28;20458;-81
2023/01/27 00:41:40;;;;;;;456.10;435.77;;;3.50;99.90;;;;;;5001879;28;20454;-82
2023/01/27 00:44:11;;;;;;;457.07;436.37;;;3.60;99.90;;;;;;5001832;28;20833;-81
2023/01/27 00:46:38;;;;;;;488.20;465.90;;;3.60;99.90;;;;;;5002244;28;20481;-79
2023/01/27 00:49:05;;;;;;;485.93;462.17;;;3.60;99.90;;;;;;5002657;28;20474;-81
2023/01/27 00:51:32;;;;;;;471.37;450.17;;;3.60;99.90;;;;;;5002066;28;20529;-79
2023/01/27 00:54:01;;;;;;;397.97;380.77;;;3.60;99.90;;;;;;5002209;28;20478;-81
2023/01/27 00:56:28;;;;;;;394.37;377.77;;;3.60;99.90;;;;;;5002044;28;20454;-81
2023/01/27 00:58:55;;;;;;;373.97;358.27;;;3.70;99.90;;;;;;5002107;28;20476;-80
2023/01/27 01:01:22;;;;;;;313.17;300.53;;;3.60;99.90;;;;;;5002175;28;20461;-81
2023/01/27 01:03:49;;;;;;;347.30;332.87;;;3.70;99.90;;;;;;5001782;28;20450;-80
2023/01/27 01:06:17;;;;;;;384.43;367.87;;;3.70;99.90;;;;;;5001076;28;20458;-81
2023/01/27 01:08:45;;;;;;;386.60;371.17;;;3.70;99.90;;;;;;5002501;28;20478;-81
2023/01/27 01:11:15;;;;;;;394.27;377.47;;;3.80;99.90;;;;;;5001264;28;20465;-81
2023/01/27 01:13:42;;;;;;;365.17;350.27;;;3.80;99.90;;;;;;5001527;28;20486;-82
2023/01/27 01:16:11;;;;;;;364.07;349.73;;;3.80;99.90;;;;;;5001191;28;20454;-81
2023/01/27 01:18:38;;;;;;;408.83;391.80;;;3.90;99.90;;;;;;5001405;28;21004;-81
2023/01/27 01:21:06;;;;;;;315.30;303.20;;;3.90;99.90;;;;;;5001909;28;20454;-81
2023/01/27 01:23:33;;;;;;;322.37;309.83;;;3.90;99.90;;;;;;5000772;28;20949;-80
2023/01/27 01:26:00;;;;;;;300.27;288.60;;;4.00;99.90;;;;;;5001410;28;20457;-81
2023/01/27 01:28:28;;;;;;;281.60;270.57;;;4.00;99.90;;;;;;5001117;28;20509;-80
2023/01/27 01:30:55;;;;;;;294.57;283.07;;;4.10;99.90;;;;;;5001030;28;20454;-81
2023/01/27 01:33:22;;;;;;;340.40;327.60;;;4.00;99.90;;;;;;5000863;28;20861;-81
2023/01/27 01:35:49;;;;;;;314.43;302.30;;;4.00;99.90;;;;;;5001235;28;20460;-81
2023/01/27 01:38:15;;;;;;;291.77;280.47;;;4.00;99.90;;;;;;4985492;28;20477;-81
2023/01/27 01:40:43;;;;;;;264.03;254.13;;;4.10;99.90;;;;;;4982259;28;20459;-81
2023/01/27 01:43:15;;;;;;;244.70;235.77;;;4.00;99.90;;;;;;4981860;28;20451;-81
2023/01/27 01:45:49;;;;;;;308.10;296.60;;;4.00;99.90;;;;;;4981551;28;20459;-81
2023/01/27 01:48:21;;;;;;;316.73;305.43;;;4.00;99.90;;;;;;4981927;28;20475;-80
2023/01/27 01:50:52;;;;;;;303.07;292.27;;;4.00;99.90;;;;;;4981314;28;20466;-81
2023/01/27 01:53:21;;;;;;;308.17;296.87;;;4.00;99.90;;;;;;4981129;28;20478;-81
2023/01/27 01:55:48;;;;;;;217.93;209.33;;;4.00;99.90;;;;;;4981220;28;20978;-81
2023/01/27 01:58:16;;;;;;;240.40;230.63;;;3.90;99.90;;;;;;4981521;28;20483;-80
2023/01/27 02:00:42;;;;;;;105.73;100.37;;;4.00;99.90;;;;;;4981300;28;20455;-81
2023/01/27 02:03:11;;;;;;;128.63;122.73;;;4.00;99.90;;;;;;4981551;28;20454;-81
2023/01/27 02:05:41;;;;;;;139.00;133.43;;;3.90;99.90;;;;;;4981408;28;20466;-81
2023/01/27 02:08:15;;;;;;;167.77;160.90;;;3.90;99.90;;;;;;4981843;28;20509;-81
2023/01/27 02:10:42;;;;;;;150.13;144.33;;;3.90;99.90;;;;;;4981587;28;20486;-81
2023/01/27 02:13:09;;;;;;;184.73;177.53;;;3.90;99.90;;;;;;4980668;28;21002;-81
2023/01/27 02:15:36;;;;;;;201.30;192.77;;;3.80;99.90;;;;;;4981425;28;20462;-81
2023/01/27 02:18:03;;;;;;;197.17;189.23;;;3.90;99.90;;;;;;4980329;28;20522;-81
2023/01/27 02:20:39;;;;;;;203.03;195.63;;;3.90;99.90;;;;;;4981943;28;20454;-80
2023/01/27 02:23:13;;;;;;;170.83;164.47;;;3.90;99.90;;;;;;4981437;28;20455;-80
2023/01/27 02:25:48;;;;;;;166.37;160.20;;;3.90;99.90;;;;;;4981336;28;20458;-81
2023/01/27 02:28:15;;;;;;;176.23;168.43;;;3.90;99.90;;;;;;4980535;28;20486;-81
2023/01/27 02:30:41;;;;;;;167.97;161.80;;;3.90;99.90;;;;;;4981256;28;20455;-81
2023/01/27 02:33:11;;;;;;;110.37;105.63;;;4.00;99.90;;;;;;4980172;28;20479;-81
2023/01/27 02:35:42;;;;;;;126.53;120.90;;;4.00;99.90;;;;;;4981149;28;20447;-81
2023/01/27 02:38:12;;;;;;;129.03;124.13;;;3.90;99.90;;;;;;4981509;28;20486;-81
2023/01/27 02:40:40;;;;;;;102.80;98.53;;;3.90;99.90;;;;;;4981446;28;20461;-81
2023/01/27 02:43:08;;;;;;;142.80;138.03;;;4.00;99.90;;;;;;4980954;28;20459;-81
2023/01/27 02:45:35;;;;;;;160.87;154.87;;;3.90;99.90;;;;;;4982069;28;20451;-81
2023/01/27 02:48:02;;;;;;;139.63;133.97;;;3.90;99.90;;;;;;4980768;28;20477;-81
2023/01/27 02:50:28;;;;;;;102.47;97.83;;;3.80;99.90;;;;;;4980692;28;20463;-81
2023/01/27 02:52:55;;;;;;;61.50;57.73;;;3.90;99.90;;;;;;4980433;28;20469;-81
2023/01/27 02:55:22;;;;;;;77.50;72.87;;;3.80;99.90;;;;;;4980787;28;20461;-81
2023/01/27 02:57:49;;;;;;;75.50;71.93;;;3.80;99.90;;;;;;4980490;28;21024;-81
2023/01/27 03:00:18;;;;;;;91.57;87.17;;;3.70;99.90;;;;;;4981121;28;20459;-81
2023/01/27 03:02:44;;;;;;;98.83;94.03;;;3.70;99.90;;;;;;4980420;28;20457;-81
2023/01/27 03:05:12;;;;;;;75.47;71.27;;;3.70;99.90;;;;;;4980590;28;20479;-80
2023/01/27 03:07:39;;;;;;;56.47;52.60;;;3.70;99.90;;;;;;4981032;28;20485;-81
2023/01/27 03:10:07;;;;;;;36.17;33.50;;;3.60;99.90;;;;;;4980763;28;20497;-80
2023/01/27 03:12:34;;;;;;;22.83;20.43;;;3.60;99.90;;;;;;4979970;28;20461;-81
2023/01/27 03:20:30;;;;;;;13.33;12.33;;;3.50;99.90;;;;;;4980961;28;20431;-81
2023/01/27 03:22:57;;;;;;;19.10;17.30;;;3.40;99.90;;;;;;4980818;28;20477;-81
2023/01/27 03:25:24;;;;;;;19.97;18.20;;;3.50;99.90;;;;;;4981273;28;20459;-81
2023/01/27 03:27:51;;;;;;;21.30;17.80;;;3.40;99.90;;;;;;4980947;28;20550;-81
2023/01/27 03:30:18;;;;;;;16.47;14.93;;;3.50;99.90;;;;;;4982693;28;20455;-81
2023/01/27 03:32:46;;;;;;;20.73;18.73;;;3.50;99.90;;;;;;4983769;28;20454;-81
2023/01/27 03:35:14;;;;;;;17.20;15.80;;;3.40;99.90;;;;;;4984405;28;20478;-81
2023/01/27 03:48:41;;;;;;;10.07;9.20;;;3.30;99.90;;;;;;4984242;28;21006;-81
2023/01/27 03:51:10;;;;;;;13.70;10.33;;;3.40;99.90;;;;;;4983634;28;20451;-81
2023/01/27 03:53:37;;;;;;;10.43;9.33;;;3.30;99.90;;;;;;4983586;28;20479;-81
2023/01/27 03:56:05;;;;;;;11.37;8.27;;;3.20;99.90;;;;;;4984696;28;20451;-81
2023/01/27 03:58:34;;;;;;;8.57;6.70;;;3.20;99.90;;;;;;4984166;28;20479;-81
2023/01/27 04:01:02;;;;;;;11.83;8.70;;;3.20;99.90;;;;;;4984097;28;20455;-81
2023/01/27 04:09:03;;;;;;;13.40;11.00;;;3.20;99.90;;;;;;4983773;28;20880;-81
2023/01/27 04:14:15;;;;;;;12.07;11.00;;;3.30;99.90;;;;;;4983590;28;20502;-81
2023/01/27 04:16:42;;;;;;;11.40;10.47;;;3.20;99.90;;;;;;4983420;28;20470;-81
2023/01/27 04:19:11;;;;;;;10.03;8.53;;;3.30;99.90;;;;;;4983150;28;20475;-81
2023/01/27 04:21:39;;;;;;;11.70;10.53;;;3.30;99.90;;;;;;4983427;28;20455;-81
2023/01/27 04:24:07;;;;;;;11.90;9.73;;;3.20;99.90;;;;;;4983652;28;20458;-81
2023/01/27 04:26:34;;;;;;;10.73;9.73;;;3.20;99.90;;;;;;4983508;28;20487;-81
2023/01/27 04:29:02;;;;;;;9.83;8.93;;;3.30;99.90;;;;;;4982597;28;20510;-81
2023/01/27 04:31:29;;;;;;;10.13;9.13;;;3.30;99.90;;;;;;4982492;28;20455;-82
2023/01/27 04:33:56;;;;;;;9.60;8.30;;;3.20;99.90;;;;;;4983223;28;20479;-81
2023/01/27 04:36:23;;;;;;;10.57;9.57;;;3.30;99.90;;;;;;4983562;28;20458;-80
2023/01/27 04:38:51;;;;;;;10.43;9.60;;;3.30;99.90;;;;;;4982582;28;20868;-81
2023/01/27 04:41:17;;;;;;;11.70;10.67;;;3.30;99.90;;;;;;4982695;28;20463;-81
2023/01/27 04:43:44;;;;;;;11.53;10.73;;;3.40;99.90;;;;;;4982693;28;20452;-81
2023/01/27 04:46:11;;;;;;;14.00;12.80;;;3.30;99.90;;;;;;4983203;28;20455;-81
2023/01/27 04:48:37;;;;;;;13.43;12.20;;;3.30;99.90;;;;;;4983127;28;20856;-81
2023/01/27 04:51:04;;;;;;;13.27;12.37;;;3.30;99.90;;;;;;4983129;28;20455;-81
2023/01/27 04:53:31;;;;;;;12.73;11.73;;;3.20;99.90;;;;;;4982111;28;20458;-80
2023/01/27 04:56:04;;;;;;;13.67;12.53;;;3.20;99.90;;;;;;4983035;28;20463;-81
2023/01/27 04:58:31;;;;;;;14.37;12.70;;;3.20;99.90;;;;;;4983073;28;20865;-81
2023/01/27 05:00:58;;;;;;;10.33;9.53;;;3.10;99.90;;;;;;4981279;28;20463;-80
2023/01/27 05:03:25;;;;;;;7.93;7.30;;;3.00;99.90;;;;;;4981140;28;20474;-81
2023/01/27 05:05:51;;;;;;;12.23;11.20;;;2.80;99.90;;;;;;4981829;28;20962;-80
2023/01/27 05:08:18;;;;;;;11.13;10.17;;;2.70;99.90;;;;;;4982672;28;20481;-81
2023/01/27 05:10:45;;;;;;;15.47;14.27;;;2.60;99.90;;;;;;4981968;28;20447;-81
2023/01/27 05:13:13;;;;;;;25.60;23.90;;;2.50;99.90;;;;;;4982124;28;20458;-81
2023/01/27 05:15:40;;;;;;;31.67;29.60;;;2.50;99.90;;;;;;4982674;28;20479;-81
2023/01/27 05:18:07;;;;;;;26.73;25.43;;;2.50;99.90;;;;;;4982213;28;20485;-83
2023/01/27 05:20:33;;;;;;;29.40;27.80;;;2.60;99.90;;;;;;4982827;28;20531;-81
2023/01/27 05:25:44;;;;;;;49.77;47.50;;;2.70;99.90;;;;;;4981921;28;20900;-81
2023/01/27 05:28:13;;;;;;;57.73;55.23;;;2.70;99.90;;;;;;4981770;28;20478;-81
2023/01/27 05:30:39;;;;;;;66.33;63.23;;;2.70;99.90;;;;;;4981959;28;20447;-80
2023/01/27 05:33:09;;;;;;;77.27;74.07;;;2.80;99.90;;;;;;4981659;28;20461;-81
2023/01/27 05:35:37;;;;;;;84.00;80.77;;;2.80;99.90;;;;;;4982549;28;20530;-81
2023/01/27 05:38:04;;;;;;;99.53;95.60;;;2.90;99.90;;;;;;4981742;28;20540;-81
2023/01/27 05:40:31;;;;;;;109.77;105.33;;;2.90;99.90;;;;;;4981983;28;20515;-81
2023/01/27 05:42:58;;;;;;;121.20;116.50;;;2.90;99.90;;;;;;4981698;28;20507;-81
2023/01/27 05:45:27;;;;;;;142.03;135.80;;;2.90;99.90;;;;;;4981965;28;20459;-81
2023/01/27 05:47:54;;;;;;;138.47;132.07;;;3.00;99.90;;;;;;4982281;28;20475;-81
2023/01/27 05:50:21;;;;;;;138.43;133.03;;;3.00;99.90;;;;;;4982087;28;20463;-81
2023/01/27 05:52:47;;;;;;;137.30;132.13;;;3.00;99.90;;;;;;4980418;28;20451;-81
2023/01/27 05:55:14;;;;;;;144.37;138.73;;;3.10;99.90;;;;;;4980901;28;20513;-81
2023/01/27 05:57:41;;;;;;;137.60;132.57;;;3.00;99.90;;;;;;4981406;28;20475;-81
2023/01/27 06:00:09;;;;;;;132.60;127.30;;;3.10;99.90;;;;;;4981200;28;20544;-81
2023/01/27 06:02:37;;;;;;;135.07;130.03;;;3.10;99.90;;;;;;4981353;28;20462;-81
2023/01/27 06:05:04;;;;;;;159.57;152.17;;;3.20;99.90;;;;;;4980347;28;20455;-81
2023/01/27 06:07:31;;;;;;;143.40;137.77;;;3.10;99.90;;;;;;4981280;28;20481;-81
2023/01/27 06:09:58;;;;;;;134.97;129.83;;;3.20;99.90;;;;;;4980964;28;20455;-81
2023/01/27 06:12:25;;;;;;;136.60;131.00;;;3.30;99.90;;;;;;4981069;28;20459;-81
2023/01/27 06:14:52;;;;;;;148.23;142.57;;;3.20;99.90;;;;;;4980925;28;20477;-81
2023/01/27 06:17:19;;;;;;;159.67;153.17;;;3.30;99.90;;;;;;4980347;28;20476;-80
2023/01/27 06:19:47;;;;;;;161.90;156.03;;;3.20;99.90;;;;;;4980649;28;20469;-81
2023/01/27 06:22:13;;;;;;;177.53;169.73;;;3.30;99.90;;;;;;4980219;28;20459;-79
2023/01/27 06:24:40;;;;;;;178.47;171.67;;;3.30;99.90;;;;;;4980540;28;20451;-81
2023/01/27 06:27:07;;;;;;;181.00;173.50;;;3.30;99.90;;;;;;4980812;28;20486;-81
2023/01/27 06:29:35;;;;;;;162.93;156.30;;;3.20;99.90;;;;;;4982090;28;20461;-81
2023/01/27 06:32:03;;;;;;;180.40;172.97;;;3.20;99.90;;;;;;4981311;28;20459;-80
2023/01/27 06:34:31;;;;;;;178.70;171.70;;;3.20;99.90;;;;;;4981121;28;20490;-80
2023/01/27 06:37:01;;;;;;;169.97;163.57;;;3.20;99.90;;;;;;4981400;28;20459;-80
2023/01/27 06:39:29;;;;;;;198.27;190.43;;;3.30;99.90;;;;;;4982072;28;20461;-81
2023/01/27 06:42:20;;;;;;;195.57;187.17;;;3.20;99.90;;;;;;4980919;28;20470;-80
2023/01/27 06:44:47;;;;;;;168.50;162.03;;;3.20;99.90;;;;;;4978631;28;20522;-80
2023/01/27 06:47:13;;;;;;;169.77;163.27;;;3.20;99.90;;;;;;4981639;28;20475;-80
2023/01/27 06:49:40;;;;;;;180.37;173.37;;;3.30;99.90;;;;;;4981264;28;20454;-80
2023/01/27 06:52:08;;;;;;;192.53;184.70;;;3.30;99.90;;;;;;4980906;28;20459;-80
2023/01/27 06:54:35;;;;;;;193.17;185.30;;;3.40;99.90;;;;;;4980587;28;20478;-80
2023/01/27 06:57:02;;;;;;;191.13;183.90;;;3.30;99.90;;;;;;4979835;28;20451;-80
2023/01/27 06:59:28;;;;;;;181.80;174.80;;;3.30;99.90;;;;;;4980393;28;20461;-80
2023/01/27 07:01:55;;;;;;;166.30;159.73;;;3.30;99.90;;;;;;4980597;28;20454;-80
2023/01/27 07:04:22;;;;;;;171.10;164.10;;;3.30;99.90;;;;;;4981091;28;20455;-80
2023/01/27 07:06:49;;;;;;;168.37;161.70;;;3.30;99.90;;;;;;4984720;28;20818;-78
2023/01/27 07:09:24;;;;;;;185.47;176.90;;;3.40;99.90;;;;;;4984228;28;20455;-80
2023/01/27 07:11:52;;;;;;;191.33;183.63;;;3.40;99.90;;;;;;4984891;28;20909;-80
2023/01/27 07:14:18;;;;;;;193.57;186.13;;;3.40;99.90;;;;;;4982039;28;20489;-80
2023/01/27 07:16:45;;;;;;;191.30;184.00;;;3.30;99.90;;;;;;4983733;28;20461;-80
2023/01/27 07:19:15;;;;;;;186.30;179.07;;;3.30;99.90;;;;;;4983546;28;20461;-80
2023/01/27 07:21:42;;;;;;;193.30;185.60;;;3.40;99.90;;;;;;4983881;28;20481;-81
2023/01/27 07:24:15;;;;;;;195.60;187.60;;;3.40;99.90;;;;;;4982799;28;20486;-80
2023/01/27 07:26:46;;;;;;;214.27;205.93;;;3.40;99.90;;;;;;4984392;28;20514;-80
2023/01/27 07:29:13;;;;;;;213.03;204.97;;;3.40;99.90;;;;;;4982387;28;20493;-81
2023/01/27 07:31:40;;;;;;;222.03;213.33;;;3.40;99.90;;;;;;4983895;28;20463;-80
2023/01/27 07:34:06;;;;;;;198.53;191.30;;;3.40;99.90;;;;;;4982932;28;20465;-81
2023/01/27 07:36:33;;;;;;;206.57;198.40;;;3.30;99.90;;;;;;4983634;28;20455;-81
2023/01/27 07:39:00;;;;;;;224.17;214.03;;;3.40;99.90;;;;;;4983539;28;20562;-80
2023/01/27 07:41:27;;;;;;;224.90;215.00;;;3.50;99.90;;;;;;4982873;28;20486;-80
2023/01/27 07:43:55;;;;;;;226.30;216.73;;;3.50;99.90;;;;;;4983798;28;20455;-81
2023/01/27 07:46:22;;;;;;;221.07;212.43;;;3.40;99.90;;;;;;4984072;28;20450;-80
2023/01/27 07:48:48;;;;;;;226.27;216.70;;;3.40;99.90;;;;;;4983232;28;21011;-81
2023/01/27 07:51:16;;;;;;;223.07;214.67;;;3.50;99.90;;;;;;4986185;28;20496;-80
2023/01/27 07:53:42;;;;;;;224.43;215.03;;;3.60;99.90;;;;;;5001233;28;20458;-80
2023/01/27 07:56:10;;;;;;;216.73;207.30;;;3.60;99.90;;;;;;5002153;28;20509;-81
2023/01/27 07:58:39;;;;;;;213.33;203.73;;;3.60;99.90;;;;;;5002745;28;20489;-80
2023/01/27 08:01:09;;;;;;;207.27;198.63;;;3.70;99.90;;;;;;5003004;28;20450;-80
2023/01/27 08:03:36;;;;;;;204.90;196.63;;;3.70;99.90;;;;;;5003179;28;20976;-81
2023/01/27 08:06:07;;;;;;;201.53;192.93;;;3.70;99.90;;;;;;5002768;28;20452;-80
2023/01/27 08:08:34;;;;;;;204.83;196.17;;;3.80;99.90;;;;;;5002625;28;20849;-81
2023/01/27 08:11:02;;;;;;;205.43;197.23;;;3.80;99.90;;;;;;5002860;28;20461;-81
2023/01/27 08:13:29;;;;;;;200.73;192.40;;;3.80;99.90;;;;;;5002937;28;20458;-81
2023/01/27 08:15:57;;;;;;;198.87;191.00;;;3.80;99.90;;;;;;5001428;28;20478;-80
2023/01/27 08:18:26;;;;;;;207.53;199.20;;;3.80;99.90;;;;;;5002277;28;20474;-80
2023/01/27 08:20:53;;;;;;;212.60;204.20;;;3.90;99.90;;;;;;5003138;28;20458;-80
2023/01/27 08:23:21;;;;;;;221.17;212.37;;;4.00;99.90;;;;;;5001558;28;20453;-78
2023/01/27 08:25:51;;;;;;;226.87;218.27;;;4.00;99.90;;;;;;5001743;28;20454;-81
2023/01/27 08:28:19;;;;;;;213.83;205.13;;;4.00;99.90;;;;;;5002590;28;20863;-82
2023/01/27 08:30:46;;;;;;;191.27;183.87;;;4.00;99.90;;;;;;5002212;28;20972;-81
2023/01/27 08:33:12;;;;;;;185.13;177.53;;;4.00;99.90;;;;;;5001939;28;20461;-81
2023/01/27 08:35:43;;;;;;;186.53;179.30;;;4.00;99.90;;;;;;5002924;28;20482;-81
2023/01/27 08:38:10;;;;;;;195.53;186.90;;;4.00;99.90;;;;;;5002698;28;20557;-81
2023/01/27 08:40:38;;;;;;;169.50;163.07;;;4.10;99.90;;;;;;5003182;28;20456;-82
2023/01/27 08:43:05;;;;;;;166.17;159.80;;;4.10;99.90;;;;;;5002249;28;20458;-81
2023/01/27 08:45:32;;;;;;;166.53;160.23;;;4.10;99.90;;;;;;5002336;28;20985;-81
2023/01/27 08:47:59;;;;;;;148.83;142.63;;;4.10;99.90;;;;;;5002405;28;20512;-81
2023/01/27 08:50:26;;;;;;;149.87;143.90;;;4.10;99.90;;;;;;5001777;28;20461;-81
2023/01/27 08:52:57;;;;;;;152.63;146.83;;;4.20;99.90;;;;;;5002210;28;20450;-80
2023/01/27 08:55:25;;;;;;;163.90;157.70;;;4.30;99.90;;;;;;5002120;28;20526;-81
2023/01/27 08:57:54;;;;;;;157.63;152.03;;;4.40;99.90;;;;;;5002059;28;20478;-81
2023/01/27 09:00:22;;;;;;;160.27;154.33;;;4.50;99.90;;;;;;5002117;28;20556;-81
2023/01/27 09:02:49;;;;;;;162.43;156.43;;;4.40;99.90;;;;;;5001649;28;20961;-81
2023/01/27 09:05:17;;;;;;;174.93;169.00;;;4.40;99.90;;;;;;5001853;28;20454;-81
2023/01/27 09:07:44;;;;;;;125.87;121.13;;;4.40;99.90;;;;;;5002044;28;20470;-81
2023/01/27 09:10:13;;;;;;;122.53;118.17;;;4.50;99.90;;;;;;5001977;28;20491;-81
2023/01/27 09:12:40;;;;;;;87.47;83.73;;;4.40;99.90;;;;;;5001138;28;20465;-80
2023/01/27 09:15:08;;;;;;;88.70;85.07;;;4.50;99.90;;;;;;5001964;28;20485;-81
2023/01/27 09:17:35;;;;;;;82.03;78.17;;;4.60;99.90;;;;;;5001200;28;20466;-81
2023/01/27 09:20:02;;;;;;;97.53;92.77;;;4.60;99.90;;;;;;5001382;28;20521;-81
2023/01/27 09:22:29;;;;;;;71.00;67.60;;;4.60;99.90;;;;;;5001238;28;20878;-81
2023/01/27 09:24:56;;;;;;;86.63;83.10;;;4.80;99.90;;;;;;5002046;28;20473;-81
2023/01/27 09:27:25;;;;;;;73.07;69.33;;;4.70;99.90;;;;;;5000663;28;20485;-80
2023/01/27 09:29:51;;;;;;;85.73;82.20;;;4.80;99.90;;;;;;5001197;28;20838;-82
2023/01/27 09:32:18;;;;;;;61.67;58.63;;;4.80;99.90;;;;;;5000979;28;20458;-81
2023/01/27 09:34:45;;;;;;;46.90;44.20;;;4.70;99.90;;;;;;5000938;28;20458;-81
2023/01/27 09:37:13;;;;;;;59.63;56.77;;;4.90;99.90;;;;;;5001041;28;20838;-81
2023/01/27 09:39:43;;;;;;;51.30;48.73;;;4.90;99.90;;;;;;5001748;28;20458;-81
2023/01/27 09:42:29;;;;;;;54.40;51.77;;;5.00;99.90;;;;;;5001119;28;20450;-80
2023/01/27 09:45:24;;;;;;;28.30;26.50;;;5.00;99.90;;;;;;5001554;28;20449;-81
2023/01/27 09:48:25;;;;;;;28.80;27.27;;;5.10;99.90;;;;;;5001110;28;20474;-81
2023/01/27 09:51:01;;;;;;;24.70;23.13;;;5.10;99.90;;;;;;4996542;28;20466;-81
2023/01/27 09:53:57;;;;;;;22.90;19.33;;;5.10;99.90;;;;;;5001276;28;20828;-81
2023/01/27 09:56:39;;;;;;;17.37;16.17;;;5.20;99.90;;;;;;5001334;28;20481;-81
2023/01/27 09:59:36;;;;;;;15.53;14.43;;;5.10;99.90;;;;;;5001362;28;20564;-82
2023/01/27 10:02:15;;;;;;;17.57;12.10;;;5.20;99.90;;;;;;4995005;28;20460;-81
2023/01/27 10:05:02;;;;;;;14.40;12.33;;;5.20;99.90;;;;;;5001579;28;20836;-82
2023/01/27 10:07:56;;;;;;;15.30;13.80;;;5.20;99.90;;;;;;4996949;28;20501;-84
2023/01/27 10:10:36;;;;;;;11.30;10.43;;;5.40;99.90;;;;;;5000528;28;21027;-82
2023/01/27 10:13:22;;;;;;;12.87;9.80;;;5.40;99.90;;;;;;5000806;28;20450;-81
2023/01/27 10:16:12;;;;;;;7.83;7.03;;;5.30;99.90;;;;;;5000506;28;20481;-82
2023/01/27 10:19:04;;;;;;;9.67;8.20;;;5.40;99.90;;;;;;5001175;28;20703;-80
2023/01/27 10:21:40;;;;;;;13.37;10.63;;;5.40;99.90;;;;;;5001008;28;20486;-81
2023/01/27 10:24:13;;;;;;;13.60;10.07;;;5.50;99.90;;;;;;5001177;28;21081;-81
2023/01/27 10:26:42;;;;;;;13.60;10.10;;;5.60;99.90;;;;;;5000389;28;20489;-81
2023/01/27 10:29:15;;;;;;;12.30;8.70;;;5.60;99.90;;;;;;4999922;28;20496;-81
2023/01/27 10:31:50;;;;;;;15.87;11.53;;;5.60;99.90;;;;;;5000283;28;20454;-81
2023/01/27 10:34:27;;;;;;;14.57;8.63;;;5.80;99.90;;;;;;5001145;28;20464;-81
2023/01/27 10:37:08;;;;;;;13.23;8.30;;;5.70;99.90;;;;;;5001136;28;20481;-82
2023/01/27 10:39:45;;;;;;;12.87;9.63;;;5.70;99.90;;;;;;5003463;28;20457;-81
2023/01/27 10:42:20;;;;;;;11.13;7.50;;;5.70;99.90;;;;;;5004448;28;20461;-83
2023/01/27 10:44:59;;;;;;;14.17;9.60;;;5.80;99.90;;;;;;5004044;28;20830;-81
2023/01/27 10:47:40;;;;;;;9.63;7.93;;;5.90;99.90;;;;;;5003868;28;20477;-82
2023/01/27 10:50:12;;;;;;;15.00;9.13;;;5.80;99.90;;;;;;5004743;28;20957;-82
2023/01/27 10:52:45;;;;;;;10.10;6.97;;;5.60;99.90;;;;;;5004117;28;20454;-82
2023/01/27 10:55:18;;;;;;;11.23;7.57;;;5.60;99.90;;;;;;5004876;28;20752;-81
2023/01/27 10:57:50;;;;;;;8.47;6.80;;;5.70;99.90;;;;;;5004082;28;20478;-82
2023/01/27 11:00:27;;;;;;;8.57;5.63;;;5.70;99.90;;;;;;5004187;28;20442;-81
2023/01/27 11:03:02;;;;;;;10.20;7.47;;;5.60;99.90;;;;;;5004248;28;20457;-81
2023/01/27 11:05:33;;;;;;;13.50;7.47;;;5.60;99.90;;;;;;5004052;28;20989;-81
2023/01/27 11:08:05;;;;;;;11.30;6.93;;;5.60;99.90;;;;;;5004829;28;20500;-82
2023/01/27 11:10:38;;;;;;;11.00;7.63;;;5.60;99.90;;;;;;5004268;28;20468;-81
2023/01/27 11:13:25;;;;;;;11.77;8.33;;;5.70;99.90;;;;;;5003142;28;20450;-83
2023/01/27 11:15:53;;;;;;;10.87;7.87;;;5.70;99.90;;;;;;5003814;28;20999;-81
2023/01/27 11:18:24;;;;;;;10.00;7.80;;;5.70;99.90;;;;;;5004072;28;20884;-81
2023/01/27 11:20:53;;;;;;;11.57;7.20;;;5.70;99.90;;;;;;5004478;28;20438;-84
2023/01/27 11:23:23;;;;;;;12.17;6.87;;;5.80;99.90;;;;;;5004187;28;20964;-82
2023/01/27 11:25:55;;;;;;;10.47;7.43;;;5.90;99.90;;;;;;5002825;28;20614;-80
2023/01/27 11:28:30;;;;;;;11.80;7.17;;;5.90;99.90;;;;;;5003293;28;20478;-81
2023/01/27 11:31:07;;;;;;;12.27;7.83;;;5.90;99.90;;;;;;5003977;28;20947;-81
2023/01/27 11:33:50;;;;;;;12.77;7.87;;;5.80;99.90;;;;;;5003265;28;20453;-82
2023/01/27 11:36:17;;;;;;;14.70;8.03;;;5.90;99.90;;;;;;5002177;28;20482;-81
2023/01/27 11:38:44;;;;;;;11.30;8.20;;;5.90;99.90;;;;;;5003052;28;21002;-83
2023/01/27 11:41:11;;;;;;;16.50;10.30;;;5.90;99.90;;;;;;5003531;28;20461;-81
2023/01/27 11:43:38;;;;;;;11.13;6.43;;;5.90;99.90;;;;;;5003688;28;20461;-82
2023/01/27 11:46:10;;;;;;;13.27;9.60;;;6.00;99.90;;;;;;5003697;28;20450;-82
2023/01/27 11:48:42;;;;;;;18.83;9.10;;;6.00;99.90;;;;;;5002919;28;20485;-82
2023/01/27 11:51:19;;;;;;;11.80;8.67;;;6.00;99.90;;;;;;5002712;28;20481;-83
2023/01/27 11:53:50;;;;;;;10.77;7.20;;;6.00;99.90;;;;;;5003222;28;20516;-82
2023/01/27 11:56:19;;;;;;;15.57;6.10;;;6.00;99.90;;;;;;5003165;28;20837;-82
2023/01/27 11:58:51;;;;;;;14.20;6.97;;;6.00;99.90;;;;;;5003828;28;20481;-84
2023/01/27 12:01:22;;;;;;;10.10;6.63;;;6.10;99.90;;;;;;5001828;28;20461;-82
2023/01/27 12:03:58;;;;;;;16.70;8.47;;;6.20;99.90;;;;;;5002426;28;20945;-82
2023/01/27 12:06:34;;;;;;;13.57;7.50;;;6.20;99.90;;;;;;5003250;28;20440;-82
2023/01/27 12:09:00;;;;;;;10.37;6.90;;;6.30;99.90;;;;;;5002880;28;20469;-82
2023/01/27 12:11:29;;;;;;;10.00;5.63;;;6.20;99.90;;;;;;5002099;28;20823;-82
2023/01/27 12:13:58;;;;;;;14.77;8.63;;;6.30;99.90;;;;;;5003868;28;20451;-82
2023/01/27 12:16:34;;;;;;;12.97;8.10;;;6.20;99.90;;;;;;5003993;28;20484;-82
2023/01/27 12:19:22;;;;;;;11.27;6.63;;;6.20;99.90;;;;;;5007245;28;20477;-82
2023/01/27 12:21:58;;;;;;;14.23;8.70;;;6.30;99.90;;;;;;5004702;28;20466;-84
2023/01/27 12:25:00;;;;;;;12.30;8.60;;;6.30;99.90;;;;;;4989431;28;20473;-84
2023/01/27 12:28:12;;;;;;;15.17;7.20;;;6.30;99.90;;;;;;5008638;28;20543;-85
2023/01/27 12:30:52;;;;;;;13.20;9.13;;;6.30;99.90;;;;;;5008352;28;20461;-84
2023/01/27 12:36:18;;;;;;;8.27;5.30;;;6.20;99.90;;;;;;5006152;28;20482;-84
2023/01/27 12:39:34;;;;;;;13.13;6.80;;;6.20;99.90;;;;;;5005124;28;20521;-83
2023/01/27 12:42:24;;;;;;;8.63;4.27;;;6.20;99.90;;;;;;5008399;28;20453;-85
2023/01/27 12:45:07;;;;;;;8.07;5.00;;;6.30;99.90;;;;;;5008059;28;20450;-84
2023/01/27 12:47:40;;;;;;;6.60;3.90;;;6.20;99.90;;;;;;5008351;28;20462;-84
2023/01/27 12:50:37;;;;;;;9.53;5.83;;;6.10;99.90;;;;;;5008109;28;20446;-84
2023/01/27 12:53:45;;;;;;;10.03;6.60;;;6.20;99.90;;;;;;5003647;28;20450;-86
2023/01/27 12:56:38;;;;;;;11.43;5.47;;;6.20;99.90;;;;;;5005693;28;20478;-84
2023/01/27 12:59:54;;;;;;;9.93;6.10;;;6.00;99.90;;;;;;5007062;28;20498;-85
2023/01/27 13:02:37;;;;;;;16.67;7.47;;;5.90;99.90;;;;;;4981256;28;20453;-85
2023/01/27 13:05:58;;;;;;;;;;;;;;;;;;;;;
2023/01/27 13:08:53;;;;;;;9.10;6.40;;;5.80;99.90;;;;;;5002865;28;20524;-85
2023/01/27 13:12:10;;;;;;;;;;;;;;;;;;;;;
2023/01/27 13:21:24;;;;;;;9.60;5.10;;;5.40;99.90;;;;;;4986226;28;20438;-84
2023/01/27 13:24:12;;;;;;;13.27;6.70;;;5.50;99.90;;;;;;5003460;28;20458;-84
2023/01/27 13:30:05;;;;;;;11.50;6.50;;;5.40;99.90;;;;;;5003636;28;20450;-84
2023/01/27 13:36:04;;;;;;;10.33;7.10;;;5.50;99.90;;;;;;5006445;28;20456;-85
2023/01/27 13:42:36;;;;;;;;;;;;;;;;;;;;;
2023/01/27 13:51:44;;;;;;;16.30;8.47;;;5.30;99.90;;;;;;4957897;28;20640;-85
2023/01/27 13:54:15;;;;;;;13.77;8.10;;;5.30;99.90;;;;;;4977205;28;20466;-84
2023/01/27 13:57:00;;;;;;;5.87;4.27;;;5.30;99.90;;;;;;4982095;28;20466;-84
2023/01/27 14:32:09;;;;;;;7.93;5.07;;;5.40;99.90;;;;;;5976072;23;20927;-82
2023/01/27 14:42:41;;;;;;;;;;;;;;;;;;;;;